sensor_id;sensor_type;location;lat;lon;timestamp;P1;durP1;ratioP1;P2;durP2;ratioP2
359;SDS011;168;48.872;9.226;2023-07-16T00:01:16;6.57;;;5.23;;
359;SDS011;168;48.872;9.226;2023-07-16T00:03:44;5.70;;;5.20;;
359;SDS011;168;48.872;9.226;2023-07-16T00:06:11;5.17;;;4.67;;
359;SDS011;168;48.872;9.226;2023-07-16T00:08:39;4.40;;;4.00;;
359;SDS011;168;48.872;9.226;2023-07-16T00:11:07;4.80;;;4.30;;
359;SDS011;168;48.872;9.226;2023-07-16T00:13:34;5.00;;;4.60;;
359;SDS011;168;48.872;9.226;2023-07-16T00:16:02;5.00;;;4.50;;
359;SDS011;168;48.872;9.226;2023-07-16T00:18:30;4.30;;;3.90;;
359;SDS011;168;48.872;9.226;2023-07-16T00:20:58;4.57;;;3.80;;
359;SDS011;168;48.872;9.226;2023-07-16T00:23:25;4.13;;;3.73;;
359;SDS011;168;48.872;9.226;2023-07-16T00:25:52;4.60;;;4.17;;
359;SDS011;168;48.872;9.226;2023-07-16T00:28:20;3.47;;;3.17;;
359;SDS011;168;48.872;9.226;2023-07-16T00:30:47;4.57;;;4.17;;
359;SDS011;168;48.872;9.226;2023-07-16T00:33:14;4.10;;;3.23;;
359;SDS011;168;48.872;9.226;2023-07-16T00:35:47;4.70;;;3.90;;
359;SDS011;168;48.872;9.226;2023-07-16T00:38:16;4.07;;;3.67;;
359;SDS011;168;48.872;9.226;2023-07-16T00:40:44;3.70;;;3.40;;
359;SDS011;168;48.872;9.226;2023-07-16T00:43:12;5.60;;;3.60;;
359;SDS011;168;48.872;9.226;2023-07-16T00:45:40;3.87;;;3.47;;
359;SDS011;168;48.872;9.226;2023-07-16T00:48:08;4.00;;;3.50;;
359;SDS011;168;48.872;9.226;2023-07-16T00:50:36;4.13;;;3.60;;
359;SDS011;168;48.872;9.226;2023-07-16T00:53:06;6.63;;;3.60;;
359;SDS011;168;48.872;9.226;2023-07-16T00:55:34;3.20;;;2.90;;
359;SDS011;168;48.872;9.226;2023-07-16T00:58:03;3.33;;;2.80;;
359;SDS011;168;48.872;9.226;2023-07-16T01:00:32;3.93;;;3.53;;
359;SDS011;168;48.872;9.226;2023-07-16T01:03:00;6.60;;;3.33;;
359;SDS011;168;48.872;9.226;2023-07-16T01:05:30;4.50;;;2.90;;
359;SDS011;168;48.872;9.226;2023-07-16T01:08:02;3.30;;;3.00;;
359;SDS011;168;48.872;9.226;2023-07-16T01:10:35;3.70;;;3.27;;
359;SDS011;168;48.872;9.226;2023-07-16T01:13:04;2.77;;;2.57;;
359;SDS011;168;48.872;9.226;2023-07-16T01:15:31;3.93;;;2.83;;
359;SDS011;168;48.872;9.226;2023-07-16T01:17:58;3.50;;;2.87;;
359;SDS011;168;48.872;9.226;2023-07-16T01:20:26;3.70;;;2.47;;
359;SDS011;168;48.872;9.226;2023-07-16T01:23:01;2.83;;;2.20;;
359;SDS011;168;48.872;9.226;2023-07-16T01:25:48;3.70;;;2.73;;
359;SDS011;168;48.872;9.226;2023-07-16T01:28:41;3.03;;;2.33;;
359;SDS011;168;48.872;9.226;2023-07-16T01:31:21;4.00;;;2.67;;
359;SDS011;168;48.872;9.226;2023-07-16T01:33:50;3.03;;;2.73;;
359;SDS011;168;48.872;9.226;2023-07-16T01:36:20;2.83;;;2.53;;
359;SDS011;168;48.872;9.226;2023-07-16T01:38:49;3.07;;;2.77;;
359;SDS011;168;48.872;9.226;2023-07-16T01:41:17;3.00;;;2.70;;
359;SDS011;168;48.872;9.226;2023-07-16T01:43:44;3.90;;;2.93;;
359;SDS011;168;48.872;9.226;2023-07-16T01:46:12;3.37;;;2.80;;
359;SDS011;168;48.872;9.226;2023-07-16T01:48:41;2.57;;;2.37;;
359;SDS011;168;48.872;9.226;2023-07-16T01:51:08;3.10;;;2.80;;
359;SDS011;168;48.872;9.226;2023-07-16T01:53:39;3.33;;;2.23;;
359;SDS011;168;48.872;9.226;2023-07-16T01:56:06;2.60;;;2.17;;
359;SDS011;168;48.872;9.226;2023-07-16T01:58:34;2.43;;;2.17;;
359;SDS011;168;48.872;9.226;2023-07-16T02:01:01;3.60;;;2.27;;
359;SDS011;168;48.872;9.226;2023-07-16T02:03:28;1.83;;;1.50;;
359;SDS011;168;48.872;9.226;2023-07-16T02:05:57;2.60;;;1.77;;
359;SDS011;168;48.872;9.226;2023-07-16T02:08:24;2.30;;;1.60;;
359;SDS011;168;48.872;9.226;2023-07-16T02:10:52;3.67;;;2.10;;
359;SDS011;168;48.872;9.226;2023-07-16T02:13:19;3.13;;;2.00;;
359;SDS011;168;48.872;9.226;2023-07-16T02:15:47;2.60;;;1.43;;
359;SDS011;168;48.872;9.226;2023-07-16T02:18:14;2.47;;;1.57;;
359;SDS011;168;48.872;9.226;2023-07-16T02:20:42;2.50;;;2.00;;
359;SDS011;168;48.872;9.226;2023-07-16T02:23:12;3.27;;;1.80;;
359;SDS011;168;48.872;9.226;2023-07-16T02:25:39;2.80;;;1.40;;
359;SDS011;168;48.872;9.226;2023-07-16T02:28:06;3.37;;;2.10;;
359;SDS011;168;48.872;9.226;2023-07-16T02:30:34;4.53;;;2.17;;
359;SDS011;168;48.872;9.226;2023-07-16T02:33:01;3.20;;;2.17;;
359;SDS011;168;48.872;9.226;2023-07-16T02:35:29;2.13;;;1.60;;
359;SDS011;168;48.872;9.226;2023-07-16T02:37:56;2.70;;;2.10;;
359;SDS011;168;48.872;9.226;2023-07-16T02:40:25;3.20;;;2.10;;
359;SDS011;168;48.872;9.226;2023-07-16T02:42:52;2.43;;;1.80;;
359;SDS011;168;48.872;9.226;2023-07-16T02:45:19;5.20;;;1.90;;
359;SDS011;168;48.872;9.226;2023-07-16T02:47:47;2.40;;;1.80;;
359;SDS011;168;48.872;9.226;2023-07-16T02:50:14;3.43;;;2.10;;
359;SDS011;168;48.872;9.226;2023-07-16T02:52:41;7.63;;;2.13;;
359;SDS011;168;48.872;9.226;2023-07-16T02:55:09;3.40;;;2.03;;
359;SDS011;168;48.872;9.226;2023-07-16T02:57:38;4.90;;;2.07;;
359;SDS011;168;48.872;9.226;2023-07-16T03:00:05;2.43;;;1.90;;
359;SDS011;168;48.872;9.226;2023-07-16T03:02:33;2.50;;;1.70;;
359;SDS011;168;48.872;9.226;2023-07-16T03:05:01;2.53;;;1.87;;
359;SDS011;168;48.872;9.226;2023-07-16T03:07:28;2.93;;;2.07;;
359;SDS011;168;48.872;9.226;2023-07-16T03:09:56;4.20;;;2.23;;
359;SDS011;168;48.872;9.226;2023-07-16T03:12:23;4.00;;;2.23;;
359;SDS011;168;48.872;9.226;2023-07-16T03:14:52;3.20;;;2.47;;
359;SDS011;168;48.872;9.226;2023-07-16T03:17:19;5.83;;;2.57;;
359;SDS011;168;48.872;9.226;2023-07-16T03:19:47;3.50;;;2.30;;
359;SDS011;168;48.872;9.226;2023-07-16T03:22:15;3.37;;;2.13;;
359;SDS011;168;48.872;9.226;2023-07-16T03:24:42;2.70;;;2.03;;
359;SDS011;168;48.872;9.226;2023-07-16T03:27:09;4.93;;;2.60;;
359;SDS011;168;48.872;9.226;2023-07-16T03:29:37;5.07;;;2.70;;
359;SDS011;168;48.872;9.226;2023-07-16T03:32:06;4.97;;;2.17;;
359;SDS011;168;48.872;9.226;2023-07-16T03:34:34;5.13;;;2.33;;
359;SDS011;168;48.872;9.226;2023-07-16T03:37:01;2.80;;;2.50;;
359;SDS011;168;48.872;9.226;2023-07-16T03:39:28;2.70;;;2.20;;
359;SDS011;168;48.872;9.226;2023-07-16T03:41:56;3.70;;;2.53;;
359;SDS011;168;48.872;9.226;2023-07-16T03:44:23;2.97;;;2.40;;
359;SDS011;168;48.872;9.226;2023-07-16T03:46:50;4.13;;;2.27;;
359;SDS011;168;48.872;9.226;2023-07-16T03:49:19;2.97;;;2.37;;
359;SDS011;168;48.872;9.226;2023-07-16T03:51:46;4.77;;;3.00;;
359;SDS011;168;48.872;9.226;2023-07-16T03:54:14;2.87;;;2.57;;
359;SDS011;168;48.872;9.226;2023-07-16T03:56:41;5.83;;;2.70;;
359;SDS011;168;48.872;9.226;2023-07-16T03:59:08;3.70;;;2.40;;
359;SDS011;168;48.872;9.226;2023-07-16T04:01:36;4.30;;;2.57;;
359;SDS011;168;48.872;9.226;2023-07-16T04:04:03;3.70;;;2.70;;
359;SDS011;168;48.872;9.226;2023-07-16T04:06:32;3.33;;;2.50;;
359;SDS011;168;48.872;9.226;2023-07-16T04:08:59;3.37;;;2.77;;
359;SDS011;168;48.872;9.226;2023-07-16T04:11:26;3.97;;;2.30;;
359;SDS011;168;48.872;9.226;2023-07-16T04:13:54;2.50;;;2.30;;
359;SDS011;168;48.872;9.226;2023-07-16T04:16:21;4.27;;;2.70;;
359;SDS011;168;48.872;9.226;2023-07-16T04:18:48;2.97;;;2.30;;
359;SDS011;168;48.872;9.226;2023-07-16T04:21:16;3.57;;;2.70;;
359;SDS011;168;48.872;9.226;2023-07-16T04:23:44;4.17;;;2.47;;
359;SDS011;168;48.872;9.226;2023-07-16T04:26:12;4.30;;;2.47;;
359;SDS011;168;48.872;9.226;2023-07-16T04:28:39;4.50;;;2.53;;
359;SDS011;168;48.872;9.226;2023-07-16T04:31:06;5.63;;;2.60;;
359;SDS011;168;48.872;9.226;2023-07-16T04:33:34;3.57;;;2.40;;
359;SDS011;168;48.872;9.226;2023-07-16T04:36:01;2.90;;;2.33;;
359;SDS011;168;48.872;9.226;2023-07-16T04:38:29;4.63;;;2.47;;
359;SDS011;168;48.872;9.226;2023-07-16T04:40:57;3.80;;;2.20;;
359;SDS011;168;48.872;9.226;2023-07-16T04:43:25;4.20;;;2.80;;
359;SDS011;168;48.872;9.226;2023-07-16T04:45:52;3.40;;;2.10;;
359;SDS011;168;48.872;9.226;2023-07-16T04:48:19;3.30;;;2.27;;
359;SDS011;168;48.872;9.226;2023-07-16T04:50:46;3.73;;;2.70;;
359;SDS011;168;48.872;9.226;2023-07-16T04:53:14;4.07;;;2.67;;
359;SDS011;168;48.872;9.226;2023-07-16T04:55:44;5.20;;;2.60;;
359;SDS011;168;48.872;9.226;2023-07-16T04:58:13;3.20;;;2.53;;
359;SDS011;168;48.872;9.226;2023-07-16T05:00:41;2.80;;;2.03;;
359;SDS011;168;48.872;9.226;2023-07-16T05:03:09;3.60;;;2.63;;
359;SDS011;168;48.872;9.226;2023-07-16T05:05:36;4.30;;;2.60;;
359;SDS011;168;48.872;9.226;2023-07-16T05:08:04;3.60;;;2.43;;
359;SDS011;168;48.872;9.226;2023-07-16T05:10:31;4.60;;;1.90;;
359;SDS011;168;48.872;9.226;2023-07-16T05:12:59;3.80;;;2.30;;
359;SDS011;168;48.872;9.226;2023-07-16T05:15:31;3.87;;;2.83;;
359;SDS011;168;48.872;9.226;2023-07-16T05:17:59;3.57;;;2.50;;
359;SDS011;168;48.872;9.226;2023-07-16T05:20:26;3.90;;;2.33;;
359;SDS011;168;48.872;9.226;2023-07-16T05:22:54;5.63;;;2.57;;
359;SDS011;168;48.872;9.226;2023-07-16T05:25:21;4.23;;;2.57;;
359;SDS011;168;48.872;9.226;2023-07-16T05:27:48;4.83;;;2.73;;
359;SDS011;168;48.872;9.226;2023-07-16T05:30:16;3.23;;;2.20;;
359;SDS011;168;48.872;9.226;2023-07-16T05:32:45;3.07;;;1.90;;
359;SDS011;168;48.872;9.226;2023-07-16T05:35:12;3.77;;;2.00;;
359;SDS011;168;48.872;9.226;2023-07-16T05:37:39;3.10;;;2.57;;
359;SDS011;168;48.872;9.226;2023-07-16T05:40:07;4.20;;;2.53;;
359;SDS011;168;48.872;9.226;2023-07-16T05:42:35;4.97;;;2.10;;
359;SDS011;168;48.872;9.226;2023-07-16T05:45:02;4.43;;;2.43;;
359;SDS011;168;48.872;9.226;2023-07-16T05:47:30;2.83;;;2.00;;
359;SDS011;168;48.872;9.226;2023-07-16T05:49:59;3.00;;;2.13;;
359;SDS011;168;48.872;9.226;2023-07-16T05:52:26;4.37;;;2.40;;
359;SDS011;168;48.872;9.226;2023-07-16T05:54:54;3.30;;;1.77;;
359;SDS011;168;48.872;9.226;2023-07-16T05:57:21;2.87;;;2.10;;
359;SDS011;168;48.872;9.226;2023-07-16T05:59:49;3.60;;;2.60;;
359;SDS011;168;48.872;9.226;2023-07-16T06:02:16;4.80;;;2.20;;
359;SDS011;168;48.872;9.226;2023-07-16T06:04:43;3.50;;;2.23;;
359;SDS011;168;48.872;9.226;2023-07-16T06:07:12;4.67;;;2.43;;
359;SDS011;168;48.872;9.226;2023-07-16T06:09:40;4.73;;;2.40;;
359;SDS011;168;48.872;9.226;2023-07-16T06:12:07;4.03;;;2.10;;
359;SDS011;168;48.872;9.226;2023-07-16T06:14:35;4.27;;;2.07;;
359;SDS011;168;48.872;9.226;2023-07-16T06:17:02;3.70;;;2.47;;
359;SDS011;168;48.872;9.226;2023-07-16T06:19:29;4.33;;;2.30;;
359;SDS011;168;48.872;9.226;2023-07-16T06:21:57;4.57;;;2.00;;
359;SDS011;168;48.872;9.226;2023-07-16T06:24:25;4.70;;;2.37;;
359;SDS011;168;48.872;9.226;2023-07-16T06:26:53;3.50;;;2.10;;
359;SDS011;168;48.872;9.226;2023-07-16T06:29:21;5.30;;;3.00;;
359;SDS011;168;48.872;9.226;2023-07-16T06:32:02;4.90;;;2.33;;
359;SDS011;168;48.872;9.226;2023-07-16T06:34:30;3.97;;;2.23;;
359;SDS011;168;48.872;9.226;2023-07-16T06:36:58;4.77;;;2.13;;
359;SDS011;168;48.872;9.226;2023-07-16T06:39:27;4.90;;;2.10;;
359;SDS011;168;48.872;9.226;2023-07-16T06:41:54;4.13;;;2.13;;
359;SDS011;168;48.872;9.226;2023-07-16T06:44:21;4.63;;;2.47;;
359;SDS011;168;48.872;9.226;2023-07-16T06:46:49;4.97;;;2.37;;
359;SDS011;168;48.872;9.226;2023-07-16T06:49:16;5.13;;;1.60;;
359;SDS011;168;48.872;9.226;2023-07-16T06:51:44;4.97;;;2.03;;
359;SDS011;168;48.872;9.226;2023-07-16T06:54:11;3.97;;;2.00;;
359;SDS011;168;48.872;9.226;2023-07-16T06:56:40;5.23;;;2.27;;
359;SDS011;168;48.872;9.226;2023-07-16T06:59:07;3.93;;;2.07;;
359;SDS011;168;48.872;9.226;2023-07-16T07:01:35;4.53;;;2.13;;
359;SDS011;168;48.872;9.226;2023-07-16T07:04:02;5.77;;;2.27;;
359;SDS011;168;48.872;9.226;2023-07-16T07:06:29;3.60;;;2.00;;
359;SDS011;168;48.872;9.226;2023-07-16T07:08:57;6.10;;;2.53;;
359;SDS011;168;48.872;9.226;2023-07-16T07:11:24;4.83;;;2.10;;
359;SDS011;168;48.872;9.226;2023-07-16T07:13:53;4.40;;;2.20;;
359;SDS011;168;48.872;9.226;2023-07-16T07:16:22;3.23;;;2.10;;
359;SDS011;168;48.872;9.226;2023-07-16T07:18:49;3.70;;;2.07;;
359;SDS011;168;48.872;9.226;2023-07-16T07:21:16;4.70;;;2.20;;
359;SDS011;168;48.872;9.226;2023-07-16T07:23:44;4.23;;;2.27;;
359;SDS011;168;48.872;9.226;2023-07-16T07:26:11;4.20;;;2.07;;
359;SDS011;168;48.872;9.226;2023-07-16T07:28:38;6.07;;;2.17;;
359;SDS011;168;48.872;9.226;2023-07-16T07:31:07;6.57;;;2.47;;
359;SDS011;168;48.872;9.226;2023-07-16T07:33:34;4.80;;;2.13;;
359;SDS011;168;48.872;9.226;2023-07-16T07:36:02;3.87;;;2.30;;
359;SDS011;168;48.872;9.226;2023-07-16T07:38:29;3.30;;;1.80;;
359;SDS011;168;48.872;9.226;2023-07-16T07:40:57;3.33;;;1.87;;
359;SDS011;168;48.872;9.226;2023-07-16T07:43:24;3.77;;;1.87;;
359;SDS011;168;48.872;9.226;2023-07-16T07:45:51;3.60;;;2.13;;
359;SDS011;168;48.872;9.226;2023-07-16T07:48:20;5.07;;;2.70;;
359;SDS011;168;48.872;9.226;2023-07-16T07:50:47;5.20;;;2.10;;
359;SDS011;168;48.872;9.226;2023-07-16T07:53:15;5.90;;;2.17;;
359;SDS011;168;48.872;9.226;2023-07-16T07:55:44;6.63;;;2.00;;
359;SDS011;168;48.872;9.226;2023-07-16T07:58:12;7.13;;;2.10;;
359;SDS011;168;48.872;9.226;2023-07-16T08:00:39;7.13;;;2.37;;
359;SDS011;168;48.872;9.226;2023-07-16T08:03:06;6.30;;;2.43;;
359;SDS011;168;48.872;9.226;2023-07-16T08:05:35;3.53;;;1.70;;
359;SDS011;168;48.872;9.226;2023-07-16T08:08:03;3.60;;;1.80;;
359;SDS011;168;48.872;9.226;2023-07-16T08:10:30;3.30;;;1.93;;
359;SDS011;168;48.872;9.226;2023-07-16T08:12:57;4.33;;;2.17;;
359;SDS011;168;48.872;9.226;2023-07-16T08:15:25;4.67;;;1.80;;
359;SDS011;168;48.872;9.226;2023-07-16T08:17:52;4.80;;;2.03;;
359;SDS011;168;48.872;9.226;2023-07-16T08:20:21;6.63;;;2.10;;
359;SDS011;168;48.872;9.226;2023-07-16T08:22:50;5.23;;;2.20;;
359;SDS011;168;48.872;9.226;2023-07-16T08:25:17;5.40;;;2.17;;
359;SDS011;168;48.872;9.226;2023-07-16T08:27:45;3.63;;;2.00;;
359;SDS011;168;48.872;9.226;2023-07-16T08:30:13;3.10;;;1.93;;
359;SDS011;168;48.872;9.226;2023-07-16T08:32:41;4.10;;;1.80;;
359;SDS011;168;48.872;9.226;2023-07-16T08:35:08;3.20;;;2.30;;
359;SDS011;168;48.872;9.226;2023-07-16T08:37:41;4.10;;;2.07;;
359;SDS011;168;48.872;9.226;2023-07-16T08:40:11;3.30;;;1.90;;
359;SDS011;168;48.872;9.226;2023-07-16T08:42:39;4.07;;;1.63;;
359;SDS011;168;48.872;9.226;2023-07-16T08:45:07;3.80;;;2.07;;
359;SDS011;168;48.872;9.226;2023-07-16T08:47:37;4.40;;;2.07;;
359;SDS011;168;48.872;9.226;2023-07-16T08:50:05;3.73;;;2.00;;
359;SDS011;168;48.872;9.226;2023-07-16T08:52:33;3.33;;;2.00;;
359;SDS011;168;48.872;9.226;2023-07-16T08:55:00;3.33;;;1.60;;
359;SDS011;168;48.872;9.226;2023-07-16T08:57:29;3.43;;;1.77;;
359;SDS011;168;48.872;9.226;2023-07-16T08:59:57;3.10;;;1.50;;
359;SDS011;168;48.872;9.226;2023-07-16T09:02:25;3.00;;;2.10;;
359;SDS011;168;48.872;9.226;2023-07-16T09:04:53;2.20;;;1.80;;
359;SDS011;168;48.872;9.226;2023-07-16T09:07:21;3.07;;;1.93;;
359;SDS011;168;48.872;9.226;2023-07-16T09:09:54;3.23;;;1.87;;
359;SDS011;168;48.872;9.226;2023-07-16T09:12:24;4.23;;;2.30;;
359;SDS011;168;48.872;9.226;2023-07-16T09:14:53;5.07;;;2.27;;
359;SDS011;168;48.872;9.226;2023-07-16T09:17:21;5.50;;;2.53;;
359;SDS011;168;48.872;9.226;2023-07-16T09:19:49;3.63;;;2.30;;
359;SDS011;168;48.872;9.226;2023-07-16T09:22:17;8.97;;;2.60;;
359;SDS011;168;48.872;9.226;2023-07-16T09:24:45;3.57;;;2.00;;
359;SDS011;168;48.872;9.226;2023-07-16T09:27:13;3.63;;;1.90;;
359;SDS011;168;48.872;9.226;2023-07-16T09:29:41;5.10;;;2.50;;
359;SDS011;168;48.872;9.226;2023-07-16T09:32:10;4.93;;;2.17;;
359;SDS011;168;48.872;9.226;2023-07-16T09:34:37;3.30;;;2.10;;
359;SDS011;168;48.872;9.226;2023-07-16T09:37:05;3.83;;;2.00;;
359;SDS011;168;48.872;9.226;2023-07-16T09:39:32;4.23;;;2.40;;
359;SDS011;168;48.872;9.226;2023-07-16T09:42:01;3.30;;;2.33;;
359;SDS011;168;48.872;9.226;2023-07-16T09:44:29;5.27;;;2.37;;
359;SDS011;168;48.872;9.226;2023-07-16T09:46:56;3.27;;;2.57;;
359;SDS011;168;48.872;9.226;2023-07-16T09:49:26;3.07;;;2.30;;
359;SDS011;168;48.872;9.226;2023-07-16T09:51:55;3.70;;;2.17;;
359;SDS011;168;48.872;9.226;2023-07-16T09:54:24;5.40;;;2.47;;
359;SDS011;168;48.872;9.226;2023-07-16T09:56:54;4.40;;;1.97;;
359;SDS011;168;48.872;9.226;2023-07-16T09:59:25;4.47;;;2.20;;
359;SDS011;168;48.872;9.226;2023-07-16T10:01:55;3.83;;;2.27;;
359;SDS011;168;48.872;9.226;2023-07-16T10:04:23;2.80;;;2.10;;
359;SDS011;168;48.872;9.226;2023-07-16T10:06:53;2.90;;;2.00;;
359;SDS011;168;48.872;9.226;2023-07-16T10:09:34;3.63;;;2.23;;
359;SDS011;168;48.872;9.226;2023-07-16T10:12:15;4.73;;;2.33;;
359;SDS011;168;48.872;9.226;2023-07-16T10:14:44;3.63;;;2.33;;
359;SDS011;168;48.872;9.226;2023-07-16T10:17:13;4.73;;;2.40;;
359;SDS011;168;48.872;9.226;2023-07-16T10:19:52;3.13;;;1.93;;
359;SDS011;168;48.872;9.226;2023-07-16T10:22:34;3.90;;;1.87;;
359;SDS011;168;48.872;9.226;2023-07-16T10:25:03;4.97;;;2.00;;
359;SDS011;168;48.872;9.226;2023-07-16T10:27:33;4.47;;;2.50;;
359;SDS011;168;48.872;9.226;2023-07-16T10:30:01;4.93;;;2.40;;
359;SDS011;168;48.872;9.226;2023-07-16T10:32:31;4.63;;;2.60;;
359;SDS011;168;48.872;9.226;2023-07-16T10:34:59;4.00;;;2.57;;
359;SDS011;168;48.872;9.226;2023-07-16T10:37:27;4.13;;;2.10;;
359;SDS011;168;48.872;9.226;2023-07-16T10:39:56;3.03;;;2.20;;
359;SDS011;168;48.872;9.226;2023-07-16T10:42:26;3.77;;;2.30;;
359;SDS011;168;48.872;9.226;2023-07-16T10:44:54;3.83;;;2.20;;
359;SDS011;168;48.872;9.226;2023-07-16T10:47:25;3.40;;;2.17;;
359;SDS011;168;48.872;9.226;2023-07-16T10:49:56;3.00;;;2.03;;
359;SDS011;168;48.872;9.226;2023-07-16T10:52:23;4.47;;;2.50;;
359;SDS011;168;48.872;9.226;2023-07-16T10:54:52;4.97;;;3.33;;
359;SDS011;168;48.872;9.226;2023-07-16T10:57:21;4.90;;;2.90;;
359;SDS011;168;48.872;9.226;2023-07-16T10:59:50;4.63;;;2.50;;
359;SDS011;168;48.872;9.226;2023-07-16T11:02:18;3.70;;;2.33;;
359;SDS011;168;48.872;9.226;2023-07-16T11:04:47;3.77;;;2.27;;
359;SDS011;168;48.872;9.226;2023-07-16T11:07:15;3.83;;;2.60;;
359;SDS011;168;48.872;9.226;2023-07-16T11:09:42;2.93;;;2.17;;
359;SDS011;168;48.872;9.226;2023-07-16T11:12:11;7.53;;;3.60;;
359;SDS011;168;48.872;9.226;2023-07-16T11:14:42;3.93;;;2.20;;
359;SDS011;168;48.872;9.226;2023-07-16T11:17:10;4.30;;;2.50;;
359;SDS011;168;48.872;9.226;2023-07-16T11:19:39;3.30;;;2.60;;
359;SDS011;168;48.872;9.226;2023-07-16T11:22:10;3.90;;;2.30;;
359;SDS011;168;48.872;9.226;2023-07-16T11:24:38;4.83;;;2.50;;
359;SDS011;168;48.872;9.226;2023-07-16T11:27:12;3.27;;;2.20;;
359;SDS011;168;48.872;9.226;2023-07-16T11:29:44;3.87;;;2.63;;
359;SDS011;168;48.872;9.226;2023-07-16T11:32:13;3.07;;;2.10;;
359;SDS011;168;48.872;9.226;2023-07-16T11:34:53;3.50;;;2.67;;
359;SDS011;168;48.872;9.226;2023-07-16T11:37:20;3.67;;;2.50;;
359;SDS011;168;48.872;9.226;2023-07-16T11:39:48;4.53;;;2.50;;
359;SDS011;168;48.872;9.226;2023-07-16T11:42:18;4.40;;;2.27;;
359;SDS011;168;48.872;9.226;2023-07-16T11:44:51;3.70;;;2.53;;
359;SDS011;168;48.872;9.226;2023-07-16T11:47:20;4.13;;;2.30;;
359;SDS011;168;48.872;9.226;2023-07-16T11:49:47;4.27;;;2.50;;
359;SDS011;168;48.872;9.226;2023-07-16T11:52:18;3.10;;;1.60;;
359;SDS011;168;48.872;9.226;2023-07-16T11:54:47;4.07;;;2.37;;
359;SDS011;168;48.872;9.226;2023-07-16T11:57:15;3.33;;;2.17;;
359;SDS011;168;48.872;9.226;2023-07-16T11:59:42;3.63;;;2.03;;
359;SDS011;168;48.872;9.226;2023-07-16T12:02:11;3.23;;;2.23;;
359;SDS011;168;48.872;9.226;2023-07-16T12:04:38;3.90;;;2.37;;
359;SDS011;168;48.872;9.226;2023-07-16T12:07:06;6.07;;;2.47;;
359;SDS011;168;48.872;9.226;2023-07-16T12:09:34;3.60;;;2.53;;
359;SDS011;168;48.872;9.226;2023-07-16T12:12:01;5.07;;;2.93;;
359;SDS011;168;48.872;9.226;2023-07-16T12:14:30;5.03;;;2.37;;
359;SDS011;168;48.872;9.226;2023-07-16T12:16:57;3.50;;;2.30;;
359;SDS011;168;48.872;9.226;2023-07-16T12:19:26;3.13;;;2.40;;
359;SDS011;168;48.872;9.226;2023-07-16T12:21:54;3.30;;;2.40;;
359;SDS011;168;48.872;9.226;2023-07-16T12:24:23;2.83;;;2.20;;
359;SDS011;168;48.872;9.226;2023-07-16T12:26:50;4.83;;;2.97;;
359;SDS011;168;48.872;9.226;2023-07-16T12:29:18;4.17;;;2.40;;
359;SDS011;168;48.872;9.226;2023-07-16T12:31:45;4.00;;;2.13;;
359;SDS011;168;48.872;9.226;2023-07-16T12:34:16;2.97;;;2.20;;
359;SDS011;168;48.872;9.226;2023-07-16T12:36:45;2.73;;;2.30;;
359;SDS011;168;48.872;9.226;2023-07-16T12:39:12;3.40;;;2.13;;
359;SDS011;168;48.872;9.226;2023-07-16T12:41:39;3.60;;;2.30;;
359;SDS011;168;48.872;9.226;2023-07-16T12:44:07;3.70;;;2.50;;
359;SDS011;168;48.872;9.226;2023-07-16T12:46:34;4.13;;;2.63;;
359;SDS011;168;48.872;9.226;2023-07-16T12:49:02;2.90;;;2.10;;
359;SDS011;168;48.872;9.226;2023-07-16T12:51:29;2.80;;;2.40;;
359;SDS011;168;48.872;9.226;2023-07-16T12:53:58;3.40;;;2.73;;
359;SDS011;168;48.872;9.226;2023-07-16T12:56:44;3.03;;;2.30;;
359;SDS011;168;48.872;9.226;2023-07-16T12:59:11;3.60;;;2.70;;
359;SDS011;168;48.872;9.226;2023-07-16T13:01:39;3.47;;;2.20;;
359;SDS011;168;48.872;9.226;2023-07-16T13:04:06;2.93;;;2.07;;
359;SDS011;168;48.872;9.226;2023-07-16T13:06:34;4.40;;;2.70;;
359;SDS011;168;48.872;9.226;2023-07-16T13:09:02;2.70;;;2.17;;
359;SDS011;168;48.872;9.226;2023-07-16T13:11:30;4.63;;;2.60;;
359;SDS011;168;48.872;9.226;2023-07-16T13:13:58;3.13;;;2.40;;
359;SDS011;168;48.872;9.226;2023-07-16T13:16:26;3.13;;;2.07;;
359;SDS011;168;48.872;9.226;2023-07-16T13:18:53;3.30;;;2.50;;
359;SDS011;168;48.872;9.226;2023-07-16T13:21:20;3.40;;;1.93;;
359;SDS011;168;48.872;9.226;2023-07-16T13:23:48;2.90;;;1.97;;
359;SDS011;168;48.872;9.226;2023-07-16T13:26:16;2.90;;;1.80;;
359;SDS011;168;48.872;9.226;2023-07-16T13:28:44;3.03;;;2.40;;
359;SDS011;168;48.872;9.226;2023-07-16T13:31:11;2.77;;;2.47;;
359;SDS011;168;48.872;9.226;2023-07-16T13:33:38;3.63;;;2.20;;
359;SDS011;168;48.872;9.226;2023-07-16T13:36:05;2.90;;;2.30;;
359;SDS011;168;48.872;9.226;2023-07-16T13:38:33;3.70;;;2.60;;
359;SDS011;168;48.872;9.226;2023-07-16T13:41:00;3.23;;;2.20;;
359;SDS011;168;48.872;9.226;2023-07-16T13:43:29;3.23;;;2.10;;
359;SDS011;168;48.872;9.226;2023-07-16T13:45:56;3.37;;;2.47;;
359;SDS011;168;48.872;9.226;2023-07-16T13:48:23;3.40;;;2.40;;
359;SDS011;168;48.872;9.226;2023-07-16T13:50:51;4.00;;;3.07;;
359;SDS011;168;48.872;9.226;2023-07-16T13:53:18;4.50;;;2.80;;
359;SDS011;168;48.872;9.226;2023-07-16T13:55:46;3.70;;;2.27;;
359;SDS011;168;48.872;9.226;2023-07-16T13:58:13;3.80;;;2.87;;
359;SDS011;168;48.872;9.226;2023-07-16T14:00:42;5.70;;;3.93;;
359;SDS011;168;48.872;9.226;2023-07-16T14:03:09;2.93;;;2.27;;
359;SDS011;168;48.872;9.226;2023-07-16T14:05:37;5.63;;;3.40;;
359;SDS011;168;48.872;9.226;2023-07-16T14:08:06;3.40;;;2.30;;
359;SDS011;168;48.872;9.226;2023-07-16T14:10:33;4.13;;;3.13;;
359;SDS011;168;48.872;9.226;2023-07-16T14:13:01;4.90;;;2.90;;
359;SDS011;168;48.872;9.226;2023-07-16T14:15:28;3.23;;;2.07;;
359;SDS011;168;48.872;9.226;2023-07-16T14:17:57;3.60;;;2.77;;
359;SDS011;168;48.872;9.226;2023-07-16T14:20:24;3.20;;;2.47;;
359;SDS011;168;48.872;9.226;2023-07-16T14:22:51;3.30;;;2.67;;
359;SDS011;168;48.872;9.226;2023-07-16T14:25:19;8.00;;;3.27;;
359;SDS011;168;48.872;9.226;2023-07-16T14:27:46;5.10;;;3.10;;
359;SDS011;168;48.872;9.226;2023-07-16T14:30:14;3.33;;;2.53;;
359;SDS011;168;48.872;9.226;2023-07-16T14:32:42;4.80;;;3.00;;
359;SDS011;168;48.872;9.226;2023-07-16T14:35:11;4.23;;;2.73;;
359;SDS011;168;48.872;9.226;2023-07-16T14:37:38;3.23;;;2.40;;
359;SDS011;168;48.872;9.226;2023-07-16T14:40:06;2.93;;;2.30;;
359;SDS011;168;48.872;9.226;2023-07-16T14:42:34;3.27;;;2.70;;
359;SDS011;168;48.872;9.226;2023-07-16T14:45:01;3.73;;;2.73;;
359;SDS011;168;48.872;9.226;2023-07-16T14:47:30;3.70;;;2.83;;
359;SDS011;168;48.872;9.226;2023-07-16T14:49:57;4.80;;;2.80;;
359;SDS011;168;48.872;9.226;2023-07-16T14:52:26;3.30;;;2.80;;
359;SDS011;168;48.872;9.226;2023-07-16T14:54:55;3.47;;;2.47;;
359;SDS011;168;48.872;9.226;2023-07-16T14:57:22;3.83;;;2.40;;
359;SDS011;168;48.872;9.226;2023-07-16T14:59:50;5.13;;;2.60;;
359;SDS011;168;48.872;9.226;2023-07-16T15:02:17;4.97;;;2.63;;
359;SDS011;168;48.872;9.226;2023-07-16T15:04:45;5.23;;;3.10;;
359;SDS011;168;48.872;9.226;2023-07-16T15:07:13;3.60;;;2.60;;
359;SDS011;168;48.872;9.226;2023-07-16T15:09:41;3.67;;;2.60;;
359;SDS011;168;48.872;9.226;2023-07-16T15:12:09;3.77;;;2.67;;
359;SDS011;168;48.872;9.226;2023-07-16T15:14:36;3.50;;;2.60;;
359;SDS011;168;48.872;9.226;2023-07-16T15:17:04;3.57;;;2.57;;
359;SDS011;168;48.872;9.226;2023-07-16T15:19:32;4.23;;;3.00;;
359;SDS011;168;48.872;9.226;2023-07-16T15:22:00;3.80;;;2.90;;
359;SDS011;168;48.872;9.226;2023-07-16T15:24:27;4.80;;;2.83;;
359;SDS011;168;48.872;9.226;2023-07-16T15:26:57;3.50;;;2.57;;
359;SDS011;168;48.872;9.226;2023-07-16T15:29:24;3.60;;;2.60;;
359;SDS011;168;48.872;9.226;2023-07-16T15:31:52;3.73;;;2.50;;
359;SDS011;168;48.872;9.226;2023-07-16T15:34:19;3.63;;;2.70;;
359;SDS011;168;48.872;9.226;2023-07-16T15:36:46;4.27;;;2.93;;
359;SDS011;168;48.872;9.226;2023-07-16T15:39:14;4.43;;;2.60;;
359;SDS011;168;48.872;9.226;2023-07-16T15:41:41;4.43;;;2.50;;
359;SDS011;168;48.872;9.226;2023-07-16T15:44:10;4.20;;;2.53;;
359;SDS011;168;48.872;9.226;2023-07-16T15:46:38;3.00;;;2.00;;
359;SDS011;168;48.872;9.226;2023-07-16T15:49:06;4.07;;;2.87;;
359;SDS011;168;48.872;9.226;2023-07-16T15:51:33;4.20;;;2.20;;